Airfield :
LOGIN :

Register | Disclaimer

   EN    FR    IT 

 










Legend :    VFR   Marginal VFR   IFR   Intensive IFR   Very Intensive IFR
Visi :
Ceiling :
>= 8 km
>= 3000ft
5 to 8 km
1000 to 3000 ft
1500m to 5 km
500 to 1000 ft
800 to 1500m
200 to 500 ft
< 800m
< 200 ft
Symbols :   Thunderstorms  Fog  Heavy snow  Heavy precipitations  Wind > 20 kt
SIGMETs :     Misc.  Thunderstorms  Icing  Turbulence  Mountain Waves  Volcanic Ashes







- Airport Elevation : -15 ft
- IATA code : RTM


EHRD - Rotterdam Zestienhoven

EXPIRED METARs :
  • 241425Z AUTO 25014KT 220V290 9999 SCT015 BKN019 OVC028 18/16 Q1013 NOSIG
  • 241355Z AUTO 24012KT 210V280 9999 -RA BKN015 BKN020 OVC024 19/16 Q1014 NOSIG
  • 241325Z AUTO 25013KT 210V270 6000 DZRA FEW014 SCT017 BKN021 18/16 Q1014 NOSIG
  • 241255Z AUTO 24012KT 210V270 9999 FEW016 BKN028 OVC032 19/16 Q1014 NOSIG
  • 241225Z AUTO 25013KT 9999 FEW016 BKN028 OVC032 19/15 Q1014 NOSIG
  • 241155Z AUTO 25014KT 220V290 9999 FEW017 SCT026 BKN030 19/15 Q1014 NOSIG

TAF TAF EHRD
Valid from the 24 at 12:00 until the 25 at 18:00 UTC


241053Z 2412/2518 24016KT 9999 SCT012 BKN020
TEMPO 2414/2505 6000 -RADZ -SHRA BKN012 FEW015TCU
PROB40
TEMPO 2418/2504 3000 DZRA BKN008
BECMG 2422/2501 BKN012
BECMG 2502/2505 27009KT BKN030
BECMG 2507/2510 26016KT
PROB40
TEMPO 2511/2518 6000 -RADZ -SHRA SCT012 SCT018TCU BKN030
No reported NOTAMs for that airfield.



MET'MAP, your aeronautical weather chart ! - Copyright ORBIFLY December 2007 - Disclaimer

ORBIFLY MET'MAP TEAM :

Programming & Development : Alexandra Zaïnal
Concept & Development : Baudouin d'Aumeries
Co-Development & Prog : Marc-Olivier Méhu
Technical & hardware support : Manuel Goepfert

Contact : metmap@orbifly.com




SOURCES & CREDITS :

   NOAA